Strona główna
METAR-TAF:

METAR-TAF

Lotnisko :

Port lotniczy Bornholm

Rønne, Dania

Szerokość geograficzna: 55-04N, Długość geograficzna: 014-45E, wysokość: 16 m

Aktualna obserwacja pogody

Raport powstał 33 minut temu, godzina 07:20 UTC
Wiatr 8 kt od zachód
Temperatura 4°C
Wilgotność 60%
Ciśnienie 1018 hPa
Widzialność 10 km lub więcej

METAR: EKRN 230720Z AUTO 27008KT 9999 FEW030/// OVC056/// 04/M03 Q1018

czas: 09:53 (07:53 UTC)

Prognoza

Raport powstał 2 godziny i 52 minut temu, godzina 05:01 UTC
Prognoza ważna od 23 godzina 06 UTC do 23 godzina 15 UTC
Wiatr 8 kt od zachodnio-północny zachód
Widzialność 10 km lub więcej
Przerywane chmury na wysokości 3000 ft

TAF: EKRN 230501Z 2306/2315 29008KT 9999 BKN030

Obserwacja i prognoza pogody dla ponad 4000 lotnisk (raport METAR i TAF).

Dostępne stacje oznaczono żółtymi i czerwonymi punktami na mapie.

Najedź kursorem aby zobaczyć nazwę stacji.

Kliknij aby zobaczyć obserwacje i prognozy pogody.

Aby zmienić mapę: kliknij na zielony przycisk z czarnym krzyżykiem, aby powiększyć; na zielony przycisk z myślnikiem, aby pomniejszyć; na zielone strzałki, aby przejść do map sąsiednich.


METAR-TAF: